createdAt,value
2023-03-06T00:02:10.237Z,99987.15
2023-03-06T00:05:44.066Z,99983.17
2023-03-06T00:08:49.224Z,99983.59
2023-03-06T00:12:28.823Z,99983.83
2023-03-06T00:16:48.726Z,99984.66
2023-03-06T00:19:49.958Z,99982.05
2023-03-06T00:23:29.915Z,99976.98
2023-03-06T00:27:57.498Z,99974.52
2023-03-06T00:56:40.530Z,99955.76
2023-03-06T00:59:50.706Z,99952.20
2023-03-06T01:03:37.048Z,99948.95
2023-03-06T01:19:01.023Z,99939.84
2023-03-06T01:22:39.924Z,99939.02
2023-03-06T01:36:51.952Z,99935.61
2023-03-06T01:40:19.736Z,99936.30
2023-03-06T01:43:50.767Z,99932.75
2023-03-06T01:47:56.657Z,99929.42
2023-03-06T01:51:59.465Z,99928.48
2023-03-06T01:55:44.350Z,99926.03
2023-03-06T01:59:02.520Z,99922.02
2023-03-06T02:10:35.006Z,99916.46
2023-03-06T02:14:05.320Z,99912.52
2023-03-06T02:17:41.519Z,99906.55
2023-03-06T02:21:25.536Z,99915.23
2023-03-06T02:24:55.008Z,99914.75
2023-03-06T02:28:33.107Z,99914.48
2023-03-06T02:32:10.905Z,99914.36
2023-03-06T02:35:53.890Z,99913.63
2023-03-06T02:39:33.985Z,99915.95
2023-03-06T02:43:03.601Z,99917.69
2023-03-06T02:46:45.799Z,99916.31
2023-03-06T02:50:18.995Z,99917.35
2023-03-06T02:53:57.281Z,99916.19
2023-03-06T02:57:34.691Z,99916.11
2023-03-06T03:11:58.054Z,99912.30
2023-03-06T03:26:13.520Z,99913.19
2023-03-06T03:44:13.214Z,99904.15
2023-03-06T03:47:49.984Z,99905.73
2023-03-06T03:51:27.538Z,99904.25
2023-03-06T03:55:18.254Z,99900.63
2023-03-06T03:58:36.530Z,99895.20
2023-03-06T04:02:14.942Z,99894.48
2023-03-06T04:05:54.133Z,99896.98
2023-03-06T04:20:12.606Z,99884.58
2023-03-06T04:34:25.479Z,99883.37
2023-03-06T04:38:15.205Z,99886.05
2023-03-06T04:41:57.268Z,99885.41
2023-03-06T04:46:25.032Z,99888.05
2023-03-06T04:50:17.843Z,99884.79
2023-03-06T04:54:19.198Z,99886.48
2023-03-06T05:01:42.874Z,99889.21
2023-03-06T05:05:48.397Z,99888.43
2023-03-06T05:09:21.471Z,99889.77
2023-03-06T05:13:11.541Z,99889.58
2023-03-06T05:16:48.403Z,99884.23
2023-03-06T05:20:23.388Z,99886.48
2023-03-06T05:24:01.490Z,99882.16
2023-03-06T05:43:09.754Z,99890.65
2023-03-06T05:47:04.237Z,99885.39
2023-03-06T05:50:55.529Z,99890.73
2023-03-06T05:54:30.830Z,99885.45
2023-03-06T06:01:57.909Z,99893.56
2023-03-06T06:05:34.508Z,99902.54
2023-03-06T06:09:01.495Z,99901.06
2023-03-06T06:13:34.787Z,99900.75
2023-03-06T06:31:54.677Z,99903.89
2023-03-06T06:50:55.138Z,99917.91
2023-03-06T06:54:13.528Z,99916.92
2023-03-06T06:58:37.481Z,99914.95
2023-03-06T07:02:10.913Z,99915.05
2023-03-06T07:06:26.938Z,99917.48
2023-03-06T07:10:05.795Z,99915.19
2023-03-06T07:24:14.255Z,99921.54
2023-03-06T07:27:36.136Z,99923.06
2023-03-06T07:31:27.497Z,99925.55
2023-03-06T07:34:50.741Z,99930.13
2023-03-06T07:38:27.303Z,99930.58
2023-03-06T07:43:21.824Z,99929.38
2023-03-06T07:46:50.192Z,99931.98
2023-03-06T07:50:29.391Z,99925.09
2023-03-06T07:54:02.273Z,99926.12
2023-03-06T07:57:39.580Z,99932.23
2023-03-06T08:15:49.814Z,99940.86
2023-03-06T08:30:14.851Z,99944.54
2023-03-06T08:37:28.706Z,99950.88
2023-03-06T08:41:00.305Z,99950.20
2023-03-06T08:45:08.264Z,99949.12
2023-03-06T08:52:52.728Z,99953.23
2023-03-06T08:56:46.196Z,99954.12
2023-03-06T09:00:34.493Z,99954.69
2023-03-06T09:04:07.340Z,99953.49
2023-03-06T09:07:36.985Z,99959.94
2023-03-06T09:11:00.422Z,99959.55
2023-03-06T09:14:37.267Z,99961.42
2023-03-06T09:18:15.596Z,99962.77
2023-03-06T09:21:54.102Z,99966.34
2023-03-06T09:25:30.277Z,99964.60
2023-03-06T09:29:08.157Z,99968.58
2023-03-06T09:32:46.246Z,99968.33
2023-03-06T09:36:24.002Z,99973.04
2023-03-06T09:40:01.855Z,99973.08
2023-03-06T09:48:57.234Z,99972.75
2023-03-06T09:56:24.699Z,99972.88
2023-03-06T10:01:20.802Z,99971.95
2023-03-06T10:04:59.500Z,99973.68
2023-03-06T10:39:14.234Z,99999.41
2023-03-06T10:43:11.221Z,100000.87
2023-03-06T11:04:03.080Z,99987.08
2023-03-06T11:08:46.027Z,99986.09
2023-03-06T11:16:57.897Z,99967.27
2023-03-06T11:20:52.020Z,99965.46
2023-03-06T11:43:02.972Z,99980.02
2023-03-06T11:46:32.024Z,99983.23
2023-03-06T11:50:37.088Z,99986.24
2023-03-06T11:53:40.304Z,99997.01
2023-03-06T11:57:23.198Z,100005.44
2023-03-06T12:00:55.664Z,100009.36
2023-03-06T12:05:08.511Z,100012.02
2023-03-06T12:08:28.876Z,100015.46
2023-03-06T12:12:03.242Z,100006.19
2023-03-06T12:15:43.259Z,99996.09
2023-03-06T12:24:38.909Z,99984.41
2023-03-06T12:39:41.951Z,99980.36
2023-03-06T12:44:31.712Z,99980.05
2023-03-06T12:48:42.969Z,99979.20
2023-03-06T12:52:21.627Z,99980.42
2023-03-06T13:10:42.737Z,99976.16
2023-03-06T13:15:34.845Z,99970.38
2023-03-06T13:19:42.035Z,99968.73
2023-03-06T13:33:10.682Z,99972.17
2023-03-06T13:53:28.389Z,99968.52
2023-03-06T13:57:39.481Z,99970.38
2023-03-06T14:01:37.959Z,99969.42
2023-03-06T14:05:02.269Z,99967.15
2023-03-06T14:08:36.769Z,99971.36
2023-03-06T14:22:55.776Z,99964.14
2023-03-06T14:26:32.957Z,99965.35
2023-03-06T14:29:51.191Z,99964.58
2023-03-06T14:34:07.759Z,99959.12
2023-03-06T14:38:13.636Z,99954.05
2023-03-06T14:41:55.929Z,99956.09
2023-03-06T14:45:56.649Z,99956.48
2023-03-06T14:49:18.784Z,99952.77
2023-03-06T15:03:39.301Z,99948.58
2023-03-06T15:06:55.168Z,99949.86
2023-03-06T15:10:48.022Z,99954.30
2023-03-06T15:15:13.878Z,99952.47
2023-03-06T15:18:58.354Z,99953.05
2023-03-06T15:22:44.382Z,99948.20
2023-03-06T15:26:20.262Z,99952.05
2023-03-06T15:30:36.149Z,99949.02
2023-03-06T15:50:01.342Z,99949.79
2023-03-06T15:53:57.182Z,99952.56
2023-03-06T15:58:16.013Z,99961.52
2023-03-06T16:01:30.306Z,99956.63
2023-03-06T16:05:28.432Z,99957.30
2023-03-06T16:33:45.837Z,99956.86
2023-03-06T16:37:14.365Z,99954.66
2023-03-06T16:40:50.758Z,99955.17
2023-03-06T16:44:28.420Z,99951.39
2023-03-06T16:51:43.978Z,99944.62
2023-03-06T16:55:22.245Z,99938.13
2023-03-06T16:59:48.522Z,99937.58
2023-03-06T17:04:53.615Z,99939.84
2023-03-06T17:21:36.378Z,99941.48
2023-03-06T17:26:31.869Z,99947.33
2023-03-06T17:30:12.156Z,99947.48
2023-03-06T17:34:42.651Z,99950.29
2023-03-06T17:39:35.045Z,99949.56
2023-03-06T17:59:02.137Z,99957.09
2023-03-06T18:02:45.171Z,99951.51
2023-03-06T18:34:02.670Z,99959.42
2023-03-06T19:22:39.374Z,99957.22
2023-03-06T19:26:09.693Z,99949.73
2023-03-06T19:30:18.875Z,99953.16
2023-03-06T19:54:56.127Z,99952.64
2023-03-06T20:25:05.070Z,99952.73
2023-03-06T20:29:02.728Z,99948.34
2023-03-06T20:32:28.679Z,99944.91
2023-03-06T20:36:03.008Z,99942.21
2023-03-06T20:39:40.192Z,99943.95
2023-03-06T20:43:17.783Z,99942.39
2023-03-06T20:58:43.617Z,99934.75
2023-03-06T21:17:35.873Z,99920.09
2023-03-06T21:21:52.109Z,99917.31
2023-03-06T21:25:30.332Z,99910.91
2023-03-06T21:56:05.735Z,99902.73
2023-03-06T22:20:51.593Z,99903.48
2023-03-06T22:28:58.225Z,99896.85
2023-03-06T22:43:25.429Z,99884.02
2023-03-06T23:16:31.199Z,99863.21
2023-03-06T23:39:37.062Z,99857.33
2023-03-06T23:53:57.740Z,99855.41
2023-03-06T23:57:31.635Z,99852.70
